createdAt,value
2019-05-05T00:00:36.966Z,19
2019-05-05T00:01:39.393Z,19
2019-05-05T00:02:41.523Z,19
2019-05-05T00:03:48.858Z,19
2019-05-05T00:04:50.782Z,19
2019-05-05T00:05:55.470Z,19
2019-05-05T00:06:57.597Z,19
2019-05-05T00:07:59.750Z,19.1
2019-05-05T00:09:01.622Z,19
2019-05-05T00:10:08.523Z,19
2019-05-05T00:11:11.275Z,19.1
2019-05-05T00:12:15.222Z,19
2019-05-05T00:13:17.400Z,19
2019-05-05T00:14:19.822Z,19.1
2019-05-05T00:15:22.246Z,19.1
2019-05-05T00:16:26.269Z,19
2019-05-05T00:17:28.689Z,18.9
2019-05-05T00:18:31.663Z,19
2019-05-05T00:19:36.416Z,19
2019-05-05T00:20:38.569Z,18.9
2019-05-05T00:21:41.323Z,18.9
2019-05-05T00:22:47.754Z,19.1
2019-05-05T00:23:50.171Z,19.1
2019-05-05T00:24:54.407Z,19
2019-05-05T00:25:56.771Z,19
2019-05-05T00:26:58.933Z,19.1
2019-05-05T00:28:01.349Z,19
2019-05-05T00:29:04.955Z,19
2019-05-05T00:30:07.329Z,19.1
2019-05-05T00:31:09.741Z,19.1
2019-05-05T00:32:12.165Z,19
2019-05-05T00:33:16.892Z,19.2
2019-05-05T00:34:19.034Z,19
2019-05-05T00:35:21.203Z,19.1
2019-05-05T00:36:26.233Z,18.9
2019-05-05T00:37:28.655Z,19
2019-05-05T00:38:31.072Z,19.1
2019-05-05T00:39:35.412Z,19.1
2019-05-05T00:40:37.823Z,19.1
2019-05-05T00:41:40.258Z,19.1
2019-05-05T00:42:42.401Z,19.1
2019-05-05T00:43:47.049Z,19
2019-05-05T00:44:49.473Z,19
2019-05-05T00:45:52.075Z,19.1
2019-05-05T00:46:55.556Z,19.1
2019-05-05T00:47:57.707Z,19.1
2019-05-05T00:49:00.139Z,19.2
2019-05-05T00:50:02.555Z,19.1
2019-05-05T00:51:06.924Z,19.2
2019-05-05T00:52:09.089Z,19.1
2019-05-05T00:53:11.741Z,19
2019-05-05T00:54:17.693Z,19
2019-05-05T00:55:20.109Z,19
2019-05-05T00:56:22.000Z,19.1
2019-05-05T00:57:26.517Z,19.1
2019-05-05T00:58:28.939Z,19.1
2019-05-05T00:59:31.700Z,19.2
2019-05-05T01:00:36.186Z,18.9
2019-05-05T01:01:38.609Z,19.1
2019-05-05T01:02:41.024Z,19
2019-05-05T01:03:44.699Z,19.1
2019-05-05T01:04:47.125Z,19.1
2019-05-05T01:05:48.995Z,19.2
2019-05-05T01:06:51.155Z,19
2019-05-05T01:07:55.473Z,19
2019-05-05T01:08:58.497Z,19
2019-05-05T01:10:00.833Z,19.1
2019-05-05T01:11:04.685Z,19
2019-05-05T01:12:06.839Z,19
2019-05-05T01:13:08.995Z,19.1
2019-05-05T01:14:11.157Z,19
2019-05-05T01:15:15.601Z,18.9
2019-05-05T01:16:17.769Z,19
2019-05-05T01:17:20.195Z,19.1
2019-05-05T01:18:24.369Z,19
2019-05-05T01:19:26.957Z,19.2
2019-05-05T01:20:28.542Z,19
2019-05-05T01:21:30.406Z,18.8
2019-05-05T01:22:34.718Z,19.1
2019-05-05T01:23:37.138Z,19.1
2019-05-05T01:24:39.554Z,19
2019-05-05T01:25:41.432Z,19
2019-05-05T01:26:45.155Z,19
2019-05-05T01:27:48.499Z,19.1
2019-05-05T01:28:50.633Z,19
2019-05-05T01:29:55.049Z,19
2019-05-05T01:30:57.192Z,19
2019-05-05T01:31:59.079Z,19.1
2019-05-05T01:33:01.509Z,19.1
2019-05-05T01:34:05.372Z,19
2019-05-05T01:35:07.794Z,19.1
2019-05-05T01:36:09.955Z,19.1
2019-05-05T01:37:12.099Z,19
2019-05-05T01:38:16.606Z,18.9
2019-05-05T01:39:19.940Z,19.2
2019-05-05T01:40:21.809Z,19.1
2019-05-05T01:41:26.735Z,19.2
2019-05-05T01:42:29.148Z,19
2019-05-05T01:43:31.285Z,19
2019-05-05T01:44:35.815Z,19
2019-05-05T01:45:37.957Z,19
2019-05-05T01:46:39.842Z,19.1
2019-05-05T01:47:42.345Z,19.1
2019-05-05T01:48:46.694Z,19
2019-05-05T01:49:48.837Z,19.1
2019-05-05T01:50:50.983Z,19.1
2019-05-05T01:51:57.418Z,19
2019-05-05T01:53:00.033Z,19
2019-05-05T01:54:02.175Z,19.1
2019-05-05T01:55:08.321Z,19.1
2019-05-05T01:56:10.741Z,18.9
2019-05-05T01:57:15.205Z,19
2019-05-05T01:58:17.355Z,19.1
2019-05-05T01:59:19.795Z,19.1
2019-05-05T02:00:22.401Z,19.2
2019-05-05T02:01:26.868Z,19
2019-05-05T02:02:30.083Z,19
2019-05-05T02:03:32.403Z,19
2019-05-05T02:04:38.085Z,19.1
2019-05-05T02:05:41.101Z,19
2019-05-05T02:06:44.895Z,19
2019-05-05T02:07:48.109Z,19
2019-05-05T02:08:51.453Z,19
2019-05-05T02:09:56.335Z,19
2019-05-05T02:10:58.755Z,19
2019-05-05T02:12:00.615Z,19
2019-05-05T02:13:05.521Z,19
2019-05-05T02:14:07.634Z,19.1
2019-05-05T02:15:10.391Z,19.1
2019-05-05T02:16:11.734Z,19.2
2019-05-05T02:17:18.547Z,19.1
2019-05-05T02:18:26.803Z,19.1
2019-05-05T02:19:28.935Z,19.1
2019-05-05T02:20:31.833Z,19.1
2019-05-05T02:21:35.969Z,19
2019-05-05T02:22:38.045Z,19
2019-05-05T02:23:40.464Z,19.2
2019-05-05T02:24:45.003Z,19
2019-05-05T02:25:47.163Z,19.1
2019-05-05T02:26:49.051Z,19
2019-05-05T02:27:51.213Z,19.2
2019-05-05T02:28:55.743Z,19
2019-05-05T02:29:58.173Z,19
2019-05-05T02:31:00.323Z,19
2019-05-05T02:33:07.750Z,19
2019-05-05T02:34:10.184Z,19.1
2019-05-05T02:36:18.144Z,19.1
2019-05-05T02:37:20.754Z,19.1
2019-05-05T02:38:25.731Z,18.9
2019-05-05T02:39:28.376Z,19.2
2019-05-05T02:40:30.791Z,19
2019-05-05T02:42:38.314Z,19.1
2019-05-05T02:43:40.735Z,19
2019-05-05T02:45:47.601Z,19.1
2019-05-05T02:46:50.029Z,19.3
2019-05-05T02:48:57.141Z,19.1
2019-05-05T02:49:59.301Z,19.2
2019-05-05T02:51:06.627Z,19.1
2019-05-05T02:52:08.667Z,19.2
2019-05-05T02:53:11.697Z,19.2
2019-05-05T02:54:16.214Z,19
2019-05-05T02:55:18.640Z,19.1
2019-05-05T02:56:20.783Z,19
2019-05-05T02:57:24.942Z,19.1
2019-05-05T02:58:27.361Z,19.2
2019-05-05T02:59:30.179Z,19.1
2019-05-05T03:00:34.895Z,19.1
2019-05-05T03:01:37.321Z,19.1
2019-05-05T03:02:39.733Z,19.2
2019-05-05T03:03:46.623Z,19
2019-05-05T03:04:49.045Z,19.1
2019-05-05T03:05:51.479Z,18.9
2019-05-05T03:06:55.530Z,19.1
2019-05-05T03:07:57.953Z,19.1
2019-05-05T03:09:00.969Z,19.1
2019-05-05T03:10:05.395Z,19.1
2019-05-05T03:11:07.976Z,19
2019-05-05T03:12:11.665Z,19
2019-05-05T03:13:16.433Z,19.1
2019-05-05T03:14:18.522Z,19
2019-05-05T03:15:21.900Z,19
2019-05-05T03:16:26.418Z,18.8
2019-05-05T03:17:28.843Z,19
2019-05-05T03:18:33.664Z,19.1
2019-05-05T03:19:36.265Z,18.8
2019-05-05T03:20:39.013Z,18.8
2019-05-05T03:21:41.433Z,18.9
2019-05-05T03:22:45.622Z,18.9
2019-05-05T03:23:47.774Z,19
2019-05-05T03:24:49.642Z,19
2019-05-05T03:25:52.065Z,18.9
2019-05-05T03:26:56.560Z,19
2019-05-05T03:27:59.590Z,18.9
2019-05-05T03:29:02.211Z,19
2019-05-05T03:30:06.732Z,18.9
2019-05-05T03:31:08.880Z,19
2019-05-05T03:33:17.506Z,18.9
2019-05-05T03:34:20.122Z,19
2019-05-05T03:35:27.009Z,18.9
2019-05-05T03:36:29.160Z,18.9
2019-05-05T03:37:34.317Z,18.9
2019-05-05T03:38:37.944Z,18.9
2019-05-05T03:39:40.363Z,18.9
2019-05-05T03:40:44.145Z,18.9
2019-05-05T03:41:46.006Z,18.8
2019-05-05T03:42:48.428Z,18.8
2019-05-05T03:43:50.582Z,18.8
2019-05-05T03:44:57.474Z,19
2019-05-05T03:45:59.892Z,18.8
2019-05-05T03:47:04.096Z,18.8
2019-05-05T03:48:06.521Z,18.9
2019-05-05T03:49:08.672Z,18.9
2019-05-05T03:50:14.233Z,18.9
2019-05-05T03:52:21.812Z,18.8
2019-05-05T03:53:26.344Z,19
2019-05-05T03:54:28.496Z,18.8
2019-05-05T03:55:30.624Z,18.9
2019-05-05T03:57:37.754Z,18.9
2019-05-05T03:58:40.177Z,18.9
2019-05-05T04:00:47.305Z,18.7
2019-05-05T04:01:50.022Z,18.9
2019-05-05T04:02:54.390Z,18.8
2019-05-05T04:03:56.804Z,18.8
2019-05-05T04:04:58.945Z,18.8
2019-05-05T04:06:01.364Z,18.9
2019-05-05T04:07:05.820Z,18.9
2019-05-05T04:08:07.964Z,18.9
2019-05-05T04:09:10.131Z,18.8
2019-05-05T04:10:14.712Z,18.8
2019-05-05T04:11:17.132Z,18.8
2019-05-05T04:12:19.558Z,18.8
2019-05-05T04:13:21.154Z,18.8
2019-05-05T04:14:25.723Z,18.7
2019-05-05T04:15:28.147Z,18.8
2019-05-05T04:16:30.567Z,18.8
2019-05-05T04:17:36.003Z,18.8
2019-05-05T04:18:38.412Z,18.9
2019-05-05T04:19:41.043Z,18.8
2019-05-05T04:20:45.524Z,18.7
2019-05-05T04:21:47.952Z,18.8
2019-05-05T04:22:50.294Z,18.7
2019-05-05T04:23:54.057Z,18.9
2019-05-05T04:24:56.394Z,18.8
2019-05-05T04:25:58.990Z,18.8
2019-05-05T04:27:01.611Z,18.7
2019-05-05T04:28:05.795Z,18.8
2019-05-05T04:29:08.806Z,18.8
2019-05-05T04:30:10.970Z,18.7
2019-05-05T04:31:15.680Z,18.8
2019-05-05T04:32:18.260Z,18.7
2019-05-05T04:33:20.682Z,18.8
2019-05-05T04:34:25.092Z,18.8
2019-05-05T04:35:27.514Z,18.8
2019-05-05T04:36:30.686Z,18.7
2019-05-05T04:37:35.054Z,18.7
2019-05-05T04:38:37.476Z,18.7
2019-05-05T04:39:39.900Z,18.8
2019-05-05T04:40:43.972Z,18.8
2019-05-05T04:41:46.321Z,18.8
2019-05-05T04:42:48.209Z,18.7
2019-05-05T04:43:50.846Z,18.9
2019-05-05T04:44:57.732Z,18.8
2019-05-05T04:45:59.889Z,18.7
2019-05-05T04:47:04.329Z,18.7
2019-05-05T04:48:07.048Z,18.8
2019-05-05T04:49:09.522Z,18.8
2019-05-05T04:50:11.944Z,18.8
2019-05-05T04:51:17.885Z,18.7
2019-05-05T04:52:20.307Z,18.7
2019-05-05T04:53:24.699Z,18.7
2019-05-05T04:54:26.568Z,18.8
2019-05-05T04:55:28.998Z,18.7
2019-05-05T04:56:30.886Z,18.8
2019-05-05T04:57:36.004Z,18.8
2019-05-05T04:58:38.420Z,18.8
2019-05-05T04:59:40.842Z,18.7
2019-05-05T05:00:45.414Z,18.7
2019-05-05T05:01:47.582Z,18.7
2019-05-05T05:02:50.182Z,18.7
2019-05-05T05:03:54.123Z,18.7
2019-05-05T05:04:56.702Z,18.7
2019-05-05T05:05:59.118Z,18.7
2019-05-05T05:07:01.544Z,18.7
2019-05-05T05:08:06.050Z,18.6
2019-05-05T05:09:08.656Z,18.7
2019-05-05T05:10:11.094Z,18.7
2019-05-05T05:11:16.691Z,18.7
2019-05-05T05:12:19.124Z,18.6
2019-05-05T05:13:21.276Z,18.7
2019-05-05T05:14:25.682Z,18.7
2019-05-05T05:15:28.106Z,18.6
2019-05-05T05:16:30.854Z,18.8
2019-05-05T05:17:34.353Z,18.7
2019-05-05T05:18:36.236Z,18.7
2019-05-05T05:19:38.662Z,18.7
2019-05-05T05:20:40.546Z,18.7
2019-05-05T05:21:57.583Z,18.7
2019-05-05T05:22:49.644Z,18.7
2019-05-05T05:23:54.090Z,18.7
2019-05-05T05:24:57.126Z,18.7
2019-05-05T05:25:59.892Z,18.6
2019-05-05T05:27:02.244Z,18.7
2019-05-05T05:28:06.937Z,18.8
2019-05-05T05:29:09.360Z,18.6
2019-05-05T05:31:16.761Z,18.7
2019-05-05T05:32:18.923Z,18.7
2019-05-05T05:33:21.345Z,18.7
2019-05-05T05:34:25.769Z,18.7
2019-05-05T05:35:28.174Z,18.6
2019-05-05T05:36:30.039Z,18.7
2019-05-05T05:37:34.668Z,18.7
2019-05-05T05:38:37.288Z,18.7
2019-05-05T05:39:39.718Z,18.7
2019-05-05T05:40:41.844Z,18.8
2019-05-05T05:41:46.962Z,18.7
2019-05-05T05:42:49.382Z,18.7
2019-05-05T05:43:51.800Z,18.6
2019-05-05T05:44:56.100Z,18.7
2019-05-05T05:45:58.876Z,18.6
2019-05-05T05:47:03.383Z,18.7
2019-05-05T05:48:05.885Z,18.6
2019-05-05T05:49:07.766Z,18.7
2019-05-05T05:50:10.190Z,18.7
2019-05-05T05:51:15.264Z,18.7
2019-05-05T05:52:24.205Z,18.6
2019-05-05T05:53:26.714Z,18.7
2019-05-05T05:54:28.614Z,18.7
2019-05-05T05:55:30.772Z,18.7
2019-05-05T05:56:37.399Z,18.7
2019-05-05T05:57:40.094Z,18.7
2019-05-05T05:58:44.800Z,18.7
2019-05-05T05:59:47.226Z,18.7
2019-05-05T06:00:50.272Z,18.7
2019-05-05T06:02:57.402Z,18.6
2019-05-05T06:03:59.954Z,18.6
2019-05-05T06:05:01.861Z,18.6
2019-05-05T06:06:06.279Z,18.7
2019-05-05T06:07:08.700Z,18.7
2019-05-05T06:08:11.301Z,18.7
2019-05-05T06:09:17.240Z,18.7
2019-05-05T06:11:24.412Z,18.6
2019-05-05T06:12:26.747Z,18.5
2019-05-05T06:13:28.904Z,18.7
2019-05-05T06:14:31.407Z,18.7
2019-05-05T06:15:36.205Z,18.6
2019-05-05T06:16:38.366Z,18.6
2019-05-05T06:17:40.496Z,18.6
2019-05-05T06:18:45.022Z,18.5
2019-05-05T06:19:48.102Z,18.7
2019-05-05T06:20:50.526Z,18.6
2019-05-05T06:21:54.936Z,18.6
2019-05-05T06:22:57.442Z,18.7
2019-05-05T06:23:59.657Z,18.6
2019-05-05T06:25:02.061Z,18.7
2019-05-05T06:26:08.025Z,18.6
2019-05-05T06:27:11.052Z,18.7
2019-05-05T06:28:15.420Z,18.6
2019-05-05T06:29:17.594Z,18.6
2019-05-05T06:30:21.206Z,18.7
2019-05-05T06:31:25.782Z,18.6
2019-05-05T06:32:28.813Z,18.6
2019-05-05T06:33:31.780Z,18.6
2019-05-05T06:34:37.727Z,18.6
2019-05-05T06:35:39.876Z,18.5
2019-05-05T06:36:44.299Z,18.7
2019-05-05T06:37:47.221Z,18.6
2019-05-05T06:38:49.632Z,18.7
2019-05-05T06:39:51.779Z,18.7
2019-05-05T06:40:56.360Z,18.6
2019-05-05T06:41:58.780Z,18.7
2019-05-05T06:43:01.691Z,18.5
2019-05-05T06:44:06.735Z,18.7
2019-05-05T06:45:09.157Z,18.6
2019-05-05T06:46:11.322Z,18.6
2019-05-05T06:47:17.740Z,18.6
2019-05-05T06:48:19.878Z,18.6
2019-05-05T06:49:24.262Z,18.6
2019-05-05T06:50:26.470Z,18.6
2019-05-05T06:51:28.644Z,18.5
2019-05-05T06:53:36.040Z,18.6
2019-05-05T06:54:38.180Z,18.6
2019-05-05T06:55:40.603Z,18.6
2019-05-05T06:56:47.223Z,18.5
2019-05-05T06:57:49.654Z,18.7
2019-05-05T06:58:53.828Z,18.6
2019-05-05T06:59:56.446Z,18.5
2019-05-05T07:00:58.879Z,18.5
2019-05-05T07:02:01.027Z,18.5
2019-05-05T07:04:10.630Z,18.5
2019-05-05T07:05:14.950Z,18.6
2019-05-05T07:06:17.535Z,18.6
2019-05-05T07:07:19.959Z,18.6
2019-05-05T07:08:23.714Z,18.5
2019-05-05T07:09:26.647Z,18.6
2019-05-05T07:10:28.802Z,18.6
2019-05-05T07:11:30.938Z,18.6
2019-05-05T07:12:35.312Z,18.6
2019-05-05T07:13:37.476Z,18.6
2019-05-05T07:14:39.964Z,18.6
2019-05-05T07:16:46.810Z,18.6
2019-05-05T07:17:48.974Z,18.6
2019-05-05T07:18:51.135Z,18.5
2019-05-05T07:19:57.085Z,18.6
2019-05-05T07:20:59.710Z,18.5
2019-05-05T07:22:03.800Z,18.5
2019-05-05T07:23:06.484Z,18.6
2019-05-05T07:24:09.864Z,18.5
2019-05-05T07:25:14.213Z,18.6
2019-05-05T07:26:16.342Z,18.5
2019-05-05T07:27:18.778Z,18.6
2019-05-05T07:28:23.345Z,18.6
2019-05-05T07:29:27.256Z,18.5
2019-05-05T07:30:29.678Z,18.6
2019-05-05T07:31:34.068Z,18.4
2019-05-05T07:32:36.110Z,18.6
2019-05-05T07:33:37.990Z,18.5
2019-05-05T07:34:40.412Z,18.5
2019-05-05T07:36:49.570Z,18.6
2019-05-05T07:38:56.975Z,18.6
2019-05-05T07:39:59.484Z,18.4
2019-05-05T07:41:04.126Z,18.6
2019-05-05T07:42:06.567Z,18.6
2019-05-05T07:43:09.018Z,18.6
2019-05-05T07:46:21.137Z,18.5
2019-05-05T07:47:25.584Z,18.6
2019-05-05T07:48:28.252Z,18.6
2019-05-05T07:49:30.708Z,18.5
2019-05-05T07:50:36.528Z,18.6
2019-05-05T07:51:39.390Z,18.6
2019-05-05T07:52:43.679Z,18.5
2019-05-05T07:53:46.286Z,18.5
2019-05-05T07:54:48.448Z,18.5
2019-05-05T07:55:50.819Z,18.5
2019-05-05T07:56:55.233Z,18.5
2019-05-05T07:57:57.656Z,18.6
2019-05-05T07:58:59.802Z,18.5
2019-05-05T08:00:06.698Z,18.5
2019-05-05T08:01:08.842Z,18.6
2019-05-05T08:02:11.830Z,18.6
2019-05-05T08:03:16.715Z,18.6
2019-05-05T08:04:19.142Z,18.5
2019-05-05T08:05:20.458Z,18.4
2019-05-05T08:06:24.248Z,18.7
2019-05-05T08:07:26.108Z,18.5
2019-05-05T08:08:28.714Z,18.6
2019-05-05T08:09:30.594Z,18.5
2019-05-05T08:10:37.012Z,18.6
2019-05-05T08:11:39.612Z,18.6
2019-05-05T08:12:43.832Z,18.6
2019-05-05T08:13:46.232Z,18.5
2019-05-05T08:14:48.383Z,18.5
2019-05-05T08:16:55.782Z,18.6
2019-05-05T08:17:57.934Z,18.5
2019-05-05T08:19:00.551Z,18.6
2019-05-05T08:20:04.887Z,18.5
2019-05-05T08:21:06.769Z,18.6
2019-05-05T08:22:08.995Z,18.5
2019-05-05T08:24:16.843Z,18.6
2019-05-05T08:25:33.074Z,18.6
2019-05-05T08:26:24.204Z,18.5
2019-05-05T08:27:26.624Z,18.5
2019-05-05T08:28:29.060Z,18.5
2019-05-05T08:29:31.489Z,18.5
2019-05-05T08:30:35.726Z,18.5
2019-05-05T08:31:38.138Z,18.5
2019-05-05T08:32:40.265Z,18.5
2019-05-05T08:33:46.682Z,18.6
2019-05-05T08:35:54.733Z,18.5
2019-05-05T08:38:04.971Z,18.5
2019-05-05T08:39:07.413Z,18.5
2019-05-05T08:40:09.764Z,18.5
2019-05-05T08:41:14.615Z,18.5
2019-05-05T08:42:16.734Z,18.4
2019-05-05T08:43:19.361Z,18.4
2019-05-05T08:44:23.459Z,18.5
2019-05-05T08:45:27.274Z,18.5
2019-05-05T08:46:29.432Z,18.5
2019-05-05T08:47:31.863Z,18.5
2019-05-05T08:48:36.521Z,18.4
2019-05-05T08:49:38.683Z,18.5
2019-05-05T08:50:41.293Z,18.5
2019-05-05T08:51:45.392Z,18.5
2019-05-05T08:52:47.824Z,18.5
2019-05-05T08:53:50.124Z,18.5
2019-05-05T08:54:54.441Z,18.5
2019-05-05T08:55:56.610Z,18.4
2019-05-05T08:56:58.957Z,18.5
2019-05-05T08:58:01.175Z,18.5
2019-05-05T08:59:07.594Z,18.6
2019-05-05T09:00:10.020Z,18.5
2019-05-05T09:01:16.926Z,18.4
2019-05-05T09:02:19.351Z,18.5
2019-05-05T09:03:21.251Z,18.5
2019-05-05T09:04:25.244Z,18.5
2019-05-05T09:05:27.395Z,18.4
2019-05-05T09:06:29.825Z,18.5
2019-05-05T09:07:34.153Z,18.4
2019-05-05T09:08:36.308Z,18.6
2019-05-05T09:09:38.454Z,18.5
2019-05-05T09:10:40.882Z,18.5
2019-05-05T09:11:44.339Z,18.5
2019-05-05T09:12:46.782Z,18.5
2019-05-05T09:13:49.201Z,18.5
2019-05-05T09:14:53.636Z,18.5
2019-05-05T09:15:57.535Z,18.5
2019-05-05T09:17:00.538Z,18.4
2019-05-05T09:18:07.451Z,18.5
2019-05-05T09:19:11.091Z,18.5
2019-05-05T09:20:15.592Z,18.5
2019-05-05T09:21:17.730Z,18.5
2019-05-05T09:22:19.890Z,18.6
2019-05-05T09:23:24.435Z,18.6
2019-05-05T09:24:27.228Z,18.5
2019-05-05T09:25:29.384Z,18.5
2019-05-05T09:26:31.803Z,18.5
2019-05-05T09:27:36.543Z,18.5
2019-05-05T09:28:38.706Z,18.5
2019-05-05T09:29:41.342Z,18.6
2019-05-05T09:30:45.644Z,18.5
2019-05-05T09:31:48.011Z,18.5
2019-05-05T09:32:49.884Z,18.5
2019-05-05T09:33:54.177Z,18.6
2019-05-05T09:34:57.258Z,18.6
2019-05-05T09:35:59.860Z,18.6
2019-05-05T09:37:04.215Z,18.4
2019-05-05T09:38:06.374Z,18.5
2019-05-05T09:39:08.791Z,18.5
2019-05-05T09:40:13.667Z,18.4
2019-05-05T09:41:17.291Z,18.5
2019-05-05T09:42:20.367Z,18.5
2019-05-05T09:43:24.699Z,18.4
2019-05-05T09:44:27.134Z,18.5
2019-05-05T09:45:29.277Z,18.6
2019-05-05T09:46:31.432Z,18.5
2019-05-05T09:47:35.779Z,18.4
2019-05-05T09:48:38.214Z,18.5
2019-05-05T09:49:40.648Z,18.5
2019-05-05T09:50:47.544Z,18.6
2019-05-05T09:51:49.142Z,18.5
2019-05-05T09:52:53.473Z,18.5
2019-05-05T09:53:56.634Z,18.5
2019-05-05T09:55:04.110Z,18.6
2019-05-05T09:56:06.749Z,18.4
2019-05-05T09:57:08.899Z,18.5
2019-05-05T09:58:11.074Z,18.5
2019-05-05T09:59:15.408Z,18.4
2019-05-05T10:00:17.527Z,18.4
2019-05-05T10:01:19.699Z,18.5
2019-05-05T10:02:23.820Z,18.5
2019-05-05T10:03:27.624Z,18.4
2019-05-05T10:04:29.841Z,18.5
2019-05-05T10:05:34.021Z,18.5
2019-05-05T10:06:37.233Z,18.4
2019-05-05T10:07:40.602Z,18.5
2019-05-05T10:08:45.252Z,18.5
2019-05-05T10:09:47.384Z,18.5
2019-05-05T10:10:49.814Z,18.4
2019-05-05T10:11:54.542Z,18.5
2019-05-05T10:12:56.973Z,18.5
2019-05-05T10:13:59.406Z,18.5
2019-05-05T10:15:01.908Z,18.4
2019-05-05T10:16:07.901Z,18.4
2019-05-05T10:17:10.344Z,18.5
2019-05-05T10:18:16.957Z,18.5
2019-05-05T10:19:19.373Z,18.5
2019-05-05T10:20:24.110Z,18.4
2019-05-05T10:21:27.142Z,18.5
2019-05-05T10:22:29.563Z,18.5
2019-05-05T10:23:34.148Z,18.5
2019-05-05T10:24:36.551Z,18.4
2019-05-05T10:25:38.998Z,18.4
2019-05-05T10:27:48.314Z,18.5
2019-05-05T10:28:50.485Z,18.5
2019-05-05T10:29:55.370Z,18.5
2019-05-05T10:30:58.874Z,18.4
2019-05-05T10:32:01.303Z,18.4
2019-05-05T10:33:07.152Z,18.5
2019-05-05T10:34:09.289Z,18.4
2019-05-05T10:35:11.704Z,18.5
2019-05-05T10:36:16.402Z,18.5
2019-05-05T10:37:18.555Z,18.4
2019-05-05T10:38:23.392Z,18.5
2019-05-05T10:39:25.967Z,18.4
2019-05-05T10:40:28.138Z,18.5
2019-05-05T10:41:30.194Z,18.5
2019-05-05T10:42:34.748Z,18.4
2019-05-05T10:43:37.172Z,18.5
2019-05-05T10:44:39.604Z,18.6
2019-05-05T10:45:43.888Z,18.4
2019-05-05T10:46:47.191Z,18.5
2019-05-05T10:47:49.614Z,18.4
2019-05-05T10:48:53.651Z,18.5
2019-05-05T10:49:57.624Z,18.4
2019-05-05T10:51:01.303Z,18.4
2019-05-05T10:52:07.281Z,18.5
2019-05-05T10:53:10.163Z,18.5
2019-05-05T10:54:14.818Z,18.6
2019-05-05T10:55:17.003Z,18.5
2019-05-05T10:56:19.434Z,18.5
2019-05-05T10:57:23.483Z,18.5
2019-05-05T10:58:25.817Z,18.4
2019-05-05T10:59:28.256Z,18.4
2019-05-05T11:00:30.148Z,18.5
2019-05-05T11:01:34.459Z,18.4
2019-05-05T11:02:36.641Z,18.5
2019-05-05T11:03:39.068Z,18.5
2019-05-05T11:04:41.501Z,18.4
2019-05-05T11:05:46.172Z,18.5
2019-05-05T11:06:48.606Z,18.6
2019-05-05T11:07:50.775Z,18.5
2019-05-05T11:08:55.198Z,18.5
2019-05-05T11:09:57.632Z,18.5
2019-05-05T11:11:00.390Z,18.4
2019-05-05T11:12:05.232Z,18.4
2019-05-05T11:13:07.654Z,18.4
2019-05-05T11:14:10.295Z,18.5
2019-05-05T11:15:16.962Z,18.5
2019-05-05T11:16:18.818Z,18.5
2019-05-05T11:17:24.604Z,18.4
2019-05-05T11:18:26.715Z,18.6
2019-05-05T11:19:28.877Z,18.5
2019-05-05T11:20:31.051Z,18.6
2019-05-05T11:21:35.203Z,18.5
2019-05-05T11:22:38.515Z,18.4
2019-05-05T11:23:40.939Z,18.5
2019-05-05T11:25:47.786Z,18.4
2019-05-05T11:26:50.407Z,18.4
2019-05-05T11:27:57.044Z,18.5
2019-05-05T11:28:59.664Z,18.5
2019-05-05T11:31:06.782Z,18.5
2019-05-05T11:32:08.949Z,18.5
2019-05-05T11:33:11.583Z,18.5
2019-05-05T11:34:16.203Z,18.5
2019-05-05T11:35:18.827Z,18.4
2019-05-05T11:36:20.993Z,18.3
2019-05-05T11:37:25.441Z,18.5
2019-05-05T11:38:28.806Z,18.4
2019-05-05T11:39:30.975Z,18.5
2019-05-05T11:40:35.575Z,18.4
2019-05-05T11:41:38.003Z,18.5
2019-05-05T11:42:39.619Z,18.4
2019-05-05T11:43:42.151Z,18.4
2019-05-05T11:45:49.603Z,18.5
2019-05-05T11:48:14.462Z,18.3
2019-05-05T11:49:17.788Z,18.5
2019-05-05T11:50:23.669Z,18.6
2019-05-05T11:51:26.487Z,18.4
2019-05-05T11:52:29.036Z,18.5
2019-05-05T11:57:17.435Z,18.4
2019-05-05T11:58:19.859Z,18.4
2019-05-05T11:59:24.386Z,18.4
2019-05-05T12:00:26.526Z,18.5
2019-05-05T12:01:28.978Z,18.5
2019-05-05T12:02:32.986Z,18.4
2019-05-05T12:04:40.620Z,18.4
2019-05-05T12:05:44.821Z,18.4
2019-05-05T12:06:47.256Z,18.5
2019-05-05T12:07:49.707Z,18.5
2019-05-05T12:08:51.880Z,18.4
2019-05-05T12:09:55.450Z,18.6
2019-05-05T12:10:57.657Z,18.4
2019-05-05T12:12:00.037Z,18.5
2019-05-05T12:13:04.498Z,18.4
2019-05-05T12:14:07.485Z,18.4
2019-05-05T12:15:09.346Z,18.4
2019-05-05T12:16:13.514Z,18.5
2019-05-05T12:17:15.828Z,18.4
2019-05-05T12:18:18.255Z,18.5
2019-05-05T12:19:21.142Z,18.4
2019-05-05T12:20:25.733Z,18.5
2019-05-05T12:21:28.173Z,18.4
2019-05-05T12:22:30.323Z,18.4
2019-05-05T12:23:34.812Z,18.4
2019-05-05T12:24:37.435Z,18.5
2019-05-05T12:25:39.862Z,18.4
2019-05-05T12:26:46.757Z,18.5
2019-05-05T12:27:48.912Z,18.6
2019-05-05T12:28:50.519Z,18.4
2019-05-05T12:29:57.305Z,18.5
2019-05-05T12:30:59.751Z,18.4
2019-05-05T12:32:02.529Z,18.4
2019-05-05T12:33:05.394Z,18.4
2019-05-05T12:34:07.528Z,18.4
2019-05-05T12:35:09.627Z,18.6
2019-05-05T12:36:14.789Z,18.5
2019-05-05T12:37:17.649Z,18.4
2019-05-05T12:38:19.544Z,18.4
2019-05-05T12:39:21.982Z,18.5
2019-05-05T12:40:25.147Z,18.5
2019-05-05T12:41:27.573Z,18.4
2019-05-05T12:42:29.725Z,18.4
2019-05-05T12:44:37.143Z,18.5
2019-05-05T12:45:39.273Z,18.5
2019-05-05T12:46:41.433Z,18.4
2019-05-05T12:47:46.128Z,18.5
2019-05-05T12:48:48.715Z,18.5
2019-05-05T12:49:51.054Z,18.4
2019-05-05T12:50:57.480Z,18.6
2019-05-05T12:52:00.519Z,18.5
2019-05-05T12:53:04.604Z,18.4
2019-05-05T12:54:06.234Z,18.5
2019-05-05T12:55:08.703Z,18.4
2019-05-05T12:56:11.477Z,18.4
2019-05-05T12:57:16.014Z,18.4
2019-05-05T12:58:18.637Z,18.6
2019-05-05T12:59:21.664Z,18.5
2019-05-05T13:00:26.185Z,18.5
2019-05-05T13:01:28.618Z,18.4
2019-05-05T13:02:31.045Z,18.4
2019-05-05T13:03:35.161Z,18.5
2019-05-05T13:04:38.203Z,18.5
2019-05-05T13:05:40.635Z,18.5
2019-05-05T13:07:48.038Z,18.5
2019-05-05T13:08:50.510Z,18.4
2019-05-05T13:09:54.994Z,18.5
2019-05-05T13:10:57.439Z,18.4
2019-05-05T13:11:59.873Z,18.5
2019-05-05T13:13:04.317Z,18.5
2019-05-05T13:14:06.477Z,18.4
2019-05-05T13:15:08.965Z,18.5
2019-05-05T13:16:13.400Z,18.4
2019-05-05T13:17:16.775Z,18.5
2019-05-05T13:18:18.361Z,18.4
2019-05-05T13:19:20.805Z,18.4
2019-05-05T13:20:27.224Z,18.5
2019-05-05T13:21:30.272Z,18.5
2019-05-05T13:22:34.305Z,18.5
2019-05-05T13:23:36.197Z,18.5
2019-05-05T13:24:38.627Z,18.4
2019-05-05T13:26:46.033Z,18.5
2019-05-05T13:27:48.794Z,18.5
2019-05-05T13:28:50.420Z,18.4
2019-05-05T13:29:54.206Z,18.4
2019-05-05T13:30:56.643Z,18.4
2019-05-05T13:31:58.996Z,18.4
2019-05-05T13:33:03.481Z,18.5
2019-05-05T13:34:05.835Z,18.4
2019-05-05T13:35:08.257Z,18.5
2019-05-05T13:36:10.683Z,18.4
2019-05-05T13:37:16.835Z,18.5
2019-05-05T13:38:18.705Z,18.4
2019-05-05T13:39:21.159Z,18.4
2019-05-05T13:40:26.325Z,18.5
2019-05-05T13:41:27.952Z,18.6
2019-05-05T13:42:30.365Z,18.5
2019-05-05T13:43:34.717Z,18.5
2019-05-05T13:44:37.310Z,18.5
2019-05-05T13:45:39.478Z,18.4
2019-05-05T13:46:44.093Z,18.4
2019-05-05T13:47:47.378Z,18.4
2019-05-05T13:48:49.554Z,18.4
2019-05-05T13:49:51.454Z,18.5
2019-05-05T13:50:58.020Z,18.4
2019-05-05T13:52:00.161Z,18.4
2019-05-05T13:53:07.677Z,18.5
2019-05-05T13:54:09.875Z,18.4
2019-05-05T13:56:17.003Z,18.5
2019-05-05T13:57:19.623Z,18.5
2019-05-05T13:58:21.691Z,18.4
2019-05-05T13:59:26.568Z,18.4
2019-05-05T14:00:28.716Z,18.5
2019-05-05T14:01:31.480Z,18.4
2019-05-05T14:02:36.145Z,18.5
2019-05-05T14:03:39.350Z,18.5
2019-05-05T14:04:44.338Z,18.5
2019-05-05T14:05:47.321Z,18.5
2019-05-05T14:06:50.395Z,18.5
2019-05-05T14:07:54.196Z,18.5
2019-05-05T14:08:56.352Z,18.5
2019-05-05T14:09:59.607Z,18.4
2019-05-05T14:11:04.080Z,18.4
2019-05-05T14:12:06.500Z,18.5
2019-05-05T14:13:11.028Z,18.5
2019-05-05T14:14:14.370Z,18.4
2019-05-05T14:15:16.455Z,18.4
2019-05-05T14:16:18.878Z,18.4
2019-05-05T14:17:21.320Z,18.5
2019-05-05T14:18:24.117Z,18.4
2019-05-05T14:19:26.553Z,18.5
2019-05-05T14:20:28.996Z,18.5
2019-05-05T14:21:31.453Z,18.5
2019-05-05T14:22:35.873Z,18.5
2019-05-05T14:23:37.773Z,18.4
2019-05-05T14:24:40.404Z,18.4
2019-05-05T14:25:44.493Z,18.5
2019-05-05T14:26:47.791Z,18.5
2019-05-05T14:27:50.191Z,18.5
2019-05-05T14:28:57.103Z,18.5
2019-05-05T14:29:59.822Z,18.4
2019-05-05T14:31:02.881Z,18.3
2019-05-05T14:32:05.555Z,18.4
2019-05-05T14:33:08.285Z,18.4
2019-05-05T14:34:10.435Z,18.5
2019-05-05T14:35:14.737Z,18.4
2019-05-05T14:36:17.365Z,18.4
2019-05-05T14:37:19.429Z,18.5
2019-05-05T14:39:27.186Z,18.4
2019-05-05T14:40:30.015Z,18.4
2019-05-05T14:41:32.449Z,18.4
2019-05-05T14:42:37.153Z,18.5
2019-05-05T14:43:39.579Z,18.5
2019-05-05T14:44:44.205Z,18.4
2019-05-05T14:45:46.635Z,18.5
2019-05-05T14:46:49.053Z,18.4
2019-05-05T14:47:53.311Z,18.5